createdAt,value
2024-02-14T00:00:37.972Z,3.62
2024-02-14T00:03:07.572Z,3.58
2024-02-14T00:05:37.131Z,3.56
2024-02-14T00:08:06.787Z,3.55
2024-02-14T00:10:35.274Z,3.56
2024-02-14T00:13:05.506Z,3.55
2024-02-14T00:15:34.641Z,3.54
2024-02-14T00:18:03.586Z,3.52
2024-02-14T00:20:33.837Z,3.51
2024-02-14T00:23:03.064Z,3.51
2024-02-14T00:25:32.426Z,3.52
2024-02-14T00:28:02.243Z,3.50
2024-02-14T00:30:32.518Z,3.50
2024-02-14T00:33:01.297Z,3.50
2024-02-14T00:35:30.290Z,3.50
2024-02-14T00:37:59.163Z,3.51
2024-02-14T00:40:27.981Z,3.51
2024-02-14T00:42:56.843Z,3.52
2024-02-14T00:45:25.716Z,3.52
2024-02-14T00:47:56.089Z,3.53
2024-02-14T00:50:25.108Z,3.49
2024-02-14T00:52:53.476Z,3.47
2024-02-14T00:55:22.406Z,3.45
2024-02-14T00:57:51.154Z,3.42
2024-02-14T01:00:20.275Z,3.38
2024-02-14T01:02:49.190Z,3.32
2024-02-14T01:05:19.719Z,3.28
2024-02-14T01:07:48.715Z,3.22
2024-02-14T01:10:17.740Z,3.11
2024-02-14T01:12:46.558Z,3.02
2024-02-14T01:15:15.472Z,2.91
2024-02-14T01:17:44.451Z,2.81
2024-02-14T01:20:13.739Z,2.76
2024-02-14T01:22:43.466Z,2.65
2024-02-14T01:25:12.396Z,2.55
2024-02-14T01:27:41.743Z,2.49
2024-02-14T01:30:12.586Z,2.46
2024-02-14T01:32:41.643Z,2.42
2024-02-14T01:35:10.914Z,2.40
2024-02-14T01:37:39.403Z,2.38
2024-02-14T01:40:12.279Z,2.34
2024-02-14T01:42:41.146Z,2.28
2024-02-14T01:45:10.903Z,2.28
2024-02-14T01:47:40.776Z,2.27
2024-02-14T01:50:12.265Z,2.22
2024-02-14T01:52:41.304Z,2.16
2024-02-14T01:55:11.958Z,2.07
2024-02-14T01:57:41.318Z,1.97
2024-02-14T02:00:10.937Z,1.83
2024-02-14T02:02:42.699Z,1.72
2024-02-14T02:05:17.220Z,1.66
2024-02-14T02:07:49.492Z,1.59
2024-02-14T02:10:22.476Z,1.53
2024-02-14T02:12:52.060Z,1.52
2024-02-14T02:15:20.977Z,1.44
2024-02-14T02:17:53.894Z,1.37
2024-02-14T02:20:23.113Z,1.30
2024-02-14T02:22:52.847Z,1.27
2024-02-14T02:25:27.730Z,1.20
2024-02-14T02:27:57.824Z,1.16
2024-02-14T02:30:26.889Z,1.09
2024-02-14T02:32:56.149Z,1.07
2024-02-14T02:35:25.772Z,1.02
2024-02-14T02:37:55.676Z,0.99
2024-02-14T02:40:24.453Z,1.01
2024-02-14T02:42:53.432Z,0.98
2024-02-14T02:45:22.651Z,0.90
2024-02-14T02:47:52.926Z,0.90
2024-02-14T02:50:23.098Z,0.90
2024-02-14T02:52:51.823Z,0.89
2024-02-14T02:55:23.972Z,0.86
2024-02-14T02:57:53.924Z,0.81
2024-02-14T03:00:23.654Z,0.75
2024-02-14T03:02:52.594Z,0.68
2024-02-14T03:05:25.035Z,0.75
2024-02-14T03:07:54.053Z,0.75
2024-02-14T03:10:24.445Z,0.95
2024-02-14T03:12:53.632Z,1.01
2024-02-14T03:15:22.664Z,1.06
2024-02-14T03:17:51.729Z,1.04
2024-02-14T03:20:21.174Z,1.02
2024-02-14T03:22:49.997Z,0.97
2024-02-14T03:25:19.816Z,0.89
2024-02-14T03:27:54.281Z,0.79
2024-02-14T03:30:24.008Z,0.70
2024-02-14T03:32:53.832Z,0.69
2024-02-14T03:35:23.356Z,0.70
2024-02-14T03:37:54.203Z,0.69
2024-02-14T03:40:23.404Z,0.70
2024-02-14T03:42:54.789Z,0.66
2024-02-14T03:45:23.822Z,0.69
2024-02-14T03:47:53.050Z,0.73
2024-02-14T03:50:22.093Z,0.82
2024-02-14T03:52:50.518Z,0.84
2024-02-14T03:55:20.429Z,0.82
2024-02-14T03:57:49.740Z,0.82
2024-02-14T04:00:23.557Z,0.70
2024-02-14T04:03:00.238Z,0.56
2024-02-14T04:05:29.665Z,0.55
2024-02-14T04:07:58.543Z,0.64
2024-02-14T04:10:27.221Z,0.61
2024-02-14T04:12:56.253Z,0.58
2024-02-14T04:15:28.000Z,0.51
2024-02-14T04:17:57.159Z,0.55
2024-02-14T04:20:26.052Z,0.51
2024-02-14T04:22:54.538Z,0.50
2024-02-14T04:25:24.006Z,0.52
2024-02-14T04:27:52.878Z,0.47
2024-02-14T04:30:21.937Z,0.49
2024-02-14T04:32:53.256Z,0.40
2024-02-14T04:35:22.671Z,0.45
2024-02-14T04:37:51.134Z,0.54
2024-02-14T04:40:20.404Z,0.62
2024-02-14T04:42:49.344Z,0.62
2024-02-14T04:45:18.691Z,0.58
2024-02-14T04:47:47.725Z,0.54
2024-02-14T04:50:20.123Z,0.55
2024-02-14T04:52:48.645Z,0.53
2024-02-14T04:55:17.568Z,0.55
2024-02-14T04:57:46.685Z,0.58
2024-02-14T05:00:16.602Z,0.54
2024-02-14T05:02:45.656Z,0.49
2024-02-14T05:05:14.676Z,0.47
2024-02-14T05:07:44.813Z,0.48
2024-02-14T05:10:14.051Z,0.52
2024-02-14T05:12:43.042Z,0.56
2024-02-14T05:15:13.443Z,0.55
2024-02-14T05:17:44.671Z,0.50
2024-02-14T05:20:14.171Z,0.54
2024-02-14T05:22:42.628Z,0.54
2024-02-14T05:25:13.050Z,0.57
2024-02-14T05:27:41.998Z,0.54
2024-02-14T05:30:11.063Z,0.42
2024-02-14T05:32:41.040Z,0.39
2024-02-14T05:35:10.967Z,0.50
2024-02-14T05:37:39.647Z,0.57
2024-02-14T05:40:09.883Z,0.57
2024-02-14T05:42:40.076Z,0.52
2024-02-14T05:45:11.167Z,0.50
2024-02-14T05:47:41.026Z,0.58
2024-02-14T05:50:12.519Z,0.58
2024-02-14T05:52:41.241Z,0.61
2024-02-14T05:55:10.462Z,0.54
2024-02-14T05:57:40.891Z,0.52
2024-02-14T06:00:12.609Z,0.59
2024-02-14T06:02:42.151Z,0.59
2024-02-14T06:05:12.240Z,0.56
2024-02-14T06:07:41.450Z,0.56
2024-02-14T06:10:11.546Z,0.54
2024-02-14T06:12:44.376Z,0.56
2024-02-14T06:15:13.486Z,0.58
2024-02-14T06:17:42.684Z,0.56
2024-02-14T06:20:14.079Z,0.61
2024-02-14T06:22:50.377Z,0.63
2024-02-14T06:25:25.838Z,0.65
2024-02-14T06:27:56.690Z,0.70
2024-02-14T06:30:28.575Z,0.75
2024-02-14T06:33:02.659Z,1.05
2024-02-14T06:35:32.779Z,1.23
2024-02-14T06:38:04.797Z,1.40
2024-02-14T06:40:34.267Z,1.46
2024-02-14T06:43:04.677Z,1.38
2024-02-14T06:45:33.702Z,1.27
2024-02-14T06:48:02.772Z,1.19
2024-02-14T06:50:32.575Z,1.16
2024-02-14T06:53:02.159Z,1.16
2024-02-14T06:55:33.213Z,1.17
2024-02-14T06:58:02.390Z,1.18
2024-02-14T07:00:32.835Z,1.22
2024-02-14T07:03:03.199Z,1.27
2024-02-14T07:05:32.079Z,1.45
2024-02-14T07:08:01.025Z,1.89
2024-02-14T07:10:29.442Z,2.44
2024-02-14T07:12:58.276Z,2.78
2024-02-14T07:15:30.038Z,3.34
2024-02-14T07:18:00.800Z,3.49
2024-02-14T07:20:29.921Z,3.47
2024-02-14T07:22:58.956Z,3.50
2024-02-14T07:25:27.589Z,3.63
2024-02-14T07:27:56.407Z,3.78
2024-02-14T07:30:25.887Z,4.00
2024-02-14T07:32:55.370Z,3.82
2024-02-14T07:35:25.833Z,3.89
2024-02-14T07:37:54.625Z,4.26
2024-02-14T07:40:23.862Z,4.57
2024-02-14T07:42:52.676Z,4.77
2024-02-14T07:45:21.658Z,4.89
2024-02-14T07:47:51.915Z,4.76
2024-02-14T07:50:21.226Z,5.27
2024-02-14T07:52:51.057Z,6.16
2024-02-14T07:55:20.343Z,6.35
2024-02-14T07:57:49.282Z,6.51
2024-02-14T08:00:23.952Z,7.24
2024-02-14T08:02:53.123Z,7.12
2024-02-14T08:05:22.048Z,7.00
2024-02-14T08:07:51.833Z,7.66
2024-02-14T08:10:21.541Z,7.51
2024-02-14T08:12:50.559Z,7.70
2024-02-14T08:15:19.406Z,8.39
2024-02-14T08:17:49.738Z,8.59
2024-02-14T08:20:19.294Z,9.57
2024-02-14T08:22:47.809Z,9.99
2024-02-14T08:25:18.273Z,9.50
2024-02-14T08:27:46.892Z,10.52
2024-02-14T08:30:16.399Z,10.54
2024-02-14T08:32:45.919Z,9.96
2024-02-14T08:35:15.497Z,9.30
2024-02-14T08:37:44.026Z,10.16
2024-02-14T08:40:13.785Z,11.36
2024-02-14T08:42:44.094Z,10.52
2024-02-14T08:45:12.943Z,11.05
2024-02-14T08:47:41.999Z,11.33
2024-02-14T08:50:11.568Z,11.16
2024-02-14T08:52:40.620Z,10.83
2024-02-14T08:55:15.878Z,12.19
2024-02-14T08:57:49.236Z,12.45
2024-02-14T09:00:21.382Z,12.87
2024-02-14T09:02:50.861Z,13.32
2024-02-14T09:05:20.250Z,12.38
2024-02-14T09:07:48.834Z,12.26
2024-02-14T09:10:17.682Z,11.65
2024-02-14T09:12:48.057Z,12.03
2024-02-14T09:15:17.041Z,12.01
2024-02-14T09:17:46.053Z,12.96
2024-02-14T09:20:15.747Z,12.10
2024-02-14T09:22:44.895Z,12.13
2024-02-14T09:25:15.012Z,11.27
2024-02-14T09:27:45.174Z,11.70
2024-02-14T09:30:24.679Z,10.50
2024-02-14T09:33:01.283Z,10.23
2024-02-14T09:35:30.361Z,11.65
2024-02-14T09:38:00.557Z,11.66
2024-02-14T09:40:29.119Z,12.98
2024-02-14T09:42:59.865Z,13.84
2024-02-14T09:45:30.288Z,14.73
2024-02-14T09:48:00.094Z,14.47
2024-02-14T09:50:29.442Z,12.94
2024-02-14T09:52:58.775Z,14.08
2024-02-14T09:55:27.983Z,12.54
2024-02-14T09:57:59.057Z,12.05
2024-02-14T10:00:29.832Z,13.09
2024-02-14T10:02:58.970Z,13.18
2024-02-14T10:05:28.313Z,14.06
2024-02-14T10:07:59.337Z,15.11
2024-02-14T10:10:29.124Z,14.93
2024-02-14T10:12:58.245Z,15.88
2024-02-14T10:15:27.347Z,16.02
2024-02-14T10:17:58.886Z,16.29
2024-02-14T10:20:28.746Z,15.39
2024-02-14T10:23:04.011Z,13.89
2024-02-14T10:25:33.650Z,13.29
2024-02-14T10:28:09.893Z,13.53
2024-02-14T10:30:39.675Z,14.56
2024-02-14T10:33:17.332Z,14.35
2024-02-14T10:35:57.526Z,14.65
2024-02-14T10:38:28.595Z,15.26
2024-02-14T10:40:57.190Z,12.91
2024-02-14T10:43:26.670Z,14.42
2024-02-14T10:45:56.317Z,14.68
2024-02-14T10:48:28.036Z,15.74
2024-02-14T10:50:58.846Z,15.12
2024-02-14T10:53:29.163Z,15.55
2024-02-14T10:55:58.156Z,16.53
2024-02-14T10:58:28.083Z,15.22
2024-02-14T11:00:57.042Z,15.39
2024-02-14T11:03:27.879Z,16.16
2024-02-14T11:06:02.189Z,15.80
2024-02-14T11:08:32.945Z,15.44
2024-02-14T11:11:02.860Z,16.42
2024-02-14T11:13:32.471Z,16.53
2024-02-14T11:16:03.170Z,16.89
2024-02-14T11:18:34.747Z,17.30
2024-02-14T11:21:06.764Z,16.50
2024-02-14T11:23:36.002Z,16.37
2024-02-14T11:26:06.532Z,17.83
2024-02-14T11:28:34.832Z,18.39
2024-02-14T11:31:05.558Z,16.68
2024-02-14T11:33:36.571Z,16.51
2024-02-14T11:36:11.845Z,15.44
2024-02-14T11:38:43.017Z,16.47
2024-02-14T11:41:13.317Z,16.38
2024-02-14T11:43:41.879Z,16.63
2024-02-14T11:46:11.370Z,15.94
2024-02-14T11:48:43.228Z,15.40
2024-02-14T11:51:13.981Z,17.04
2024-02-14T11:53:42.767Z,16.13
2024-02-14T11:56:13.426Z,15.87
2024-02-14T11:58:41.807Z,16.04
2024-02-14T12:01:11.173Z,16.22
2024-02-14T12:03:42.740Z,14.63
2024-02-14T12:06:12.099Z,15.39
2024-02-14T12:08:41.730Z,16.66
2024-02-14T12:11:10.610Z,17.18
2024-02-14T12:13:44.594Z,16.73
2024-02-14T12:16:13.554Z,16.55
2024-02-14T12:18:46.472Z,16.41
2024-02-14T12:21:15.604Z,16.83
2024-02-14T12:23:44.594Z,16.73
2024-02-14T12:26:18.472Z,16.48
2024-02-14T12:28:49.654Z,14.93
2024-02-14T12:31:24.702Z,14.69
2024-02-14T12:33:56.791Z,14.39
2024-02-14T12:36:26.008Z,15.25
2024-02-14T12:38:55.177Z,15.88
2024-02-14T12:41:24.657Z,15.29
2024-02-14T12:43:53.068Z,15.75
2024-02-14T12:46:22.148Z,12.80
2024-02-14T12:48:51.353Z,13.34
2024-02-14T12:51:21.894Z,12.61
2024-02-14T12:53:51.054Z,12.28
2024-02-14T12:56:20.057Z,13.13
2024-02-14T12:58:49.198Z,13.54
2024-02-14T13:01:19.529Z,12.65
2024-02-14T13:03:49.486Z,11.95
2024-02-14T13:06:18.644Z,12.65
2024-02-14T13:08:49.156Z,12.50
2024-02-14T13:11:20.250Z,11.89
2024-02-14T13:16:17.988Z,12.35
2024-02-14T13:18:48.568Z,12.23
2024-02-14T13:21:18.133Z,11.72
2024-02-14T13:23:49.141Z,12.42
2024-02-14T13:26:18.671Z,12.81
2024-02-14T13:28:47.074Z,12.38
2024-02-14T13:31:16.373Z,12.99
2024-02-14T13:33:45.262Z,11.94
2024-02-14T13:36:17.118Z,13.09
2024-02-14T13:38:47.339Z,13.67
2024-02-14T13:41:17.473Z,13.45
2024-02-14T13:43:45.848Z,13.49
2024-02-14T13:46:15.008Z,13.04
2024-02-14T13:48:44.012Z,12.99
2024-02-14T13:51:12.974Z,12.30
2024-02-14T13:53:42.117Z,12.64
2024-02-14T13:56:11.012Z,12.25
2024-02-14T13:58:41.079Z,11.98
2024-02-14T14:01:09.802Z,10.76
2024-02-14T14:03:39.038Z,11.10
2024-02-14T14:06:09.348Z,11.58
2024-02-14T14:08:39.022Z,11.46
2024-02-14T14:11:09.412Z,11.17
2024-02-14T14:13:37.871Z,11.30
2024-02-14T14:16:08.586Z,11.94
2024-02-14T14:18:37.876Z,11.27
2024-02-14T14:21:07.351Z,11.45
2024-02-14T14:23:36.602Z,10.94
2024-02-14T14:26:05.605Z,10.58
2024-02-14T14:28:34.079Z,10.73
2024-02-14T14:31:03.333Z,10.29
2024-02-14T14:33:33.844Z,10.25
2024-02-14T14:36:04.557Z,10.43
2024-02-14T14:38:33.534Z,10.59
2024-02-14T14:41:02.252Z,10.58
2024-02-14T14:43:31.574Z,9.91
2024-02-14T14:46:00.692Z,9.12
2024-02-14T14:48:33.961Z,8.51
2024-02-14T14:51:03.919Z,8.23
2024-02-14T14:53:33.192Z,7.91
2024-02-14T14:56:02.444Z,7.72
2024-02-14T14:58:34.715Z,7.62
2024-02-14T15:01:06.352Z,7.62
2024-02-14T15:03:36.823Z,7.43
2024-02-14T15:06:06.073Z,7.33
2024-02-14T15:08:35.101Z,7.30
2024-02-14T15:11:04.058Z,7.26
2024-02-14T15:13:32.928Z,7.18
2024-02-14T15:16:04.603Z,7.14
2024-02-14T15:18:33.498Z,7.09
2024-02-14T15:21:04.235Z,7.03
2024-02-14T15:23:33.079Z,6.98
2024-02-14T15:26:05.174Z,6.95
2024-02-14T15:28:41.203Z,6.89
2024-02-14T15:31:28.021Z,6.84
2024-02-14T15:33:57.174Z,6.84
2024-02-14T15:36:27.634Z,6.78
2024-02-14T15:38:56.733Z,6.74
2024-02-14T15:41:25.688Z,6.70
2024-02-14T15:43:54.323Z,6.67
2024-02-14T15:46:23.516Z,6.64
2024-02-14T15:48:53.027Z,6.61
2024-02-14T15:51:24.754Z,6.57
2024-02-14T15:53:55.226Z,6.57
2024-02-14T15:56:25.371Z,6.55
2024-02-14T15:58:54.978Z,6.51
2024-02-14T16:01:23.885Z,6.50
2024-02-14T16:03:53.052Z,6.50
2024-02-14T16:06:22.018Z,6.49
2024-02-14T16:08:53.592Z,6.50
2024-02-14T16:11:24.273Z,6.44
2024-02-14T16:13:52.664Z,6.43
2024-02-14T16:16:21.659Z,6.39
2024-02-14T16:18:50.671Z,6.29
2024-02-14T16:21:19.707Z,6.25
2024-02-14T16:23:48.678Z,6.21
2024-02-14T16:26:17.538Z,6.19
2024-02-14T16:28:47.321Z,6.12
2024-02-14T16:31:15.999Z,6.12
2024-02-14T16:33:44.957Z,6.13
2024-02-14T16:36:14.027Z,6.10
2024-02-14T16:38:42.860Z,6.06
2024-02-14T16:41:12.500Z,6.07
2024-02-14T16:43:40.831Z,6.02
2024-02-14T16:46:11.169Z,5.97
2024-02-14T16:48:40.246Z,5.91
2024-02-14T16:51:09.318Z,5.87
2024-02-14T16:53:38.261Z,5.82
2024-02-14T16:56:08.807Z,5.75
2024-02-14T16:58:37.519Z,5.72
2024-02-14T17:01:09.418Z,5.72
2024-02-14T17:03:49.390Z,5.82
2024-02-14T17:06:27.850Z,5.82
2024-02-14T17:08:57.078Z,5.76
2024-02-14T17:11:26.621Z,5.71
2024-02-14T17:13:55.106Z,5.70
2024-02-14T17:16:23.901Z,5.66
2024-02-14T17:18:55.005Z,5.62
2024-02-14T17:21:24.407Z,5.59
2024-02-14T17:23:53.321Z,5.57
2024-02-14T17:26:22.648Z,5.56
2024-02-14T17:28:51.037Z,5.53
2024-02-14T17:31:19.989Z,5.52
2024-02-14T17:33:48.951Z,5.50
2024-02-14T17:36:19.454Z,5.54
2024-02-14T17:38:49.495Z,5.53
2024-02-14T17:41:19.256Z,5.59
2024-02-14T17:43:47.748Z,5.58
2024-02-14T17:46:16.641Z,5.54
2024-02-14T17:48:45.683Z,5.53
2024-02-14T17:51:14.940Z,5.48
2024-02-14T17:53:46.165Z,5.44
2024-02-14T17:56:15.109Z,5.44
2024-02-14T17:58:44.308Z,5.43
2024-02-14T18:01:14.213Z,5.43
2024-02-14T18:03:42.977Z,5.42
2024-02-14T18:06:11.988Z,5.41
2024-02-14T18:08:41.062Z,5.40
2024-02-14T18:11:11.288Z,5.37
2024-02-14T18:13:39.634Z,5.36
2024-02-14T18:16:10.371Z,5.36
2024-02-14T18:18:42.566Z,5.34
2024-02-14T18:21:16.565Z,5.32
2024-02-14T18:23:47.139Z,5.30
2024-02-14T18:26:18.247Z,5.27
2024-02-14T18:28:46.703Z,5.29
2024-02-14T18:31:15.417Z,5.27
2024-02-14T18:33:44.460Z,5.26
2024-02-14T18:36:14.327Z,5.22
2024-02-14T18:38:43.206Z,5.22
2024-02-14T18:41:12.095Z,5.21
2024-02-14T18:43:41.906Z,5.19
2024-02-14T18:46:10.992Z,5.20
2024-02-14T18:48:40.942Z,5.19
2024-02-14T18:51:09.784Z,5.19
2024-02-14T18:53:38.767Z,5.18
2024-02-14T18:56:08.182Z,5.19
2024-02-14T18:58:36.935Z,5.20
2024-02-14T19:01:07.467Z,5.18
2024-02-14T19:03:37.280Z,5.19
2024-02-14T19:06:06.532Z,5.17
2024-02-14T19:08:35.706Z,5.17
2024-02-14T19:11:05.678Z,5.15
2024-02-14T19:13:34.006Z,5.15
2024-02-14T19:16:09.186Z,5.14
2024-02-14T19:18:43.824Z,5.12
2024-02-14T19:21:13.762Z,5.12
2024-02-14T19:23:43.483Z,5.10
2024-02-14T19:26:12.372Z,5.08
2024-02-14T19:28:40.776Z,5.07
2024-02-14T19:31:09.684Z,5.03
2024-02-14T19:33:38.918Z,5.06
2024-02-14T19:36:11.328Z,5.04
2024-02-14T19:38:40.412Z,5.03
2024-02-14T19:41:10.000Z,5.03
2024-02-14T19:43:40.320Z,5.00
2024-02-14T19:46:10.869Z,4.98
2024-02-14T19:48:39.929Z,4.96
2024-02-14T19:51:10.976Z,4.96
2024-02-14T19:53:39.879Z,4.93
2024-02-14T19:56:09.019Z,4.91
2024-02-14T19:58:37.384Z,4.89
2024-02-14T20:01:10.522Z,4.88
2024-02-14T20:03:39.682Z,4.86
2024-02-14T20:06:10.571Z,4.85
2024-02-14T20:08:41.629Z,4.82
2024-02-14T20:11:11.023Z,4.80
2024-02-14T20:13:39.699Z,4.78
2024-02-14T20:16:09.677Z,4.76
2024-02-14T20:18:38.960Z,4.73
2024-02-14T20:21:09.709Z,4.73
2024-02-14T20:23:38.660Z,4.71
2024-02-14T20:26:07.796Z,4.71
2024-02-14T20:28:39.135Z,4.69
2024-02-14T20:31:09.298Z,4.66
2024-02-14T20:33:38.851Z,4.68
2024-02-14T20:36:09.897Z,4.67
2024-02-14T20:38:39.799Z,4.66
2024-02-14T20:41:09.013Z,4.70
2024-02-14T20:43:37.351Z,4.65
2024-02-14T20:46:06.316Z,4.61
2024-02-14T20:48:35.312Z,4.60
2024-02-14T20:51:04.739Z,4.60
2024-02-14T20:53:35.880Z,4.60
2024-02-14T20:56:04.832Z,4.59
2024-02-14T20:58:33.248Z,4.60
2024-02-14T21:01:02.280Z,4.57
2024-02-14T21:03:52.120Z,4.56
2024-02-14T21:06:22.149Z,4.56
2024-02-14T21:08:52.700Z,4.56
2024-02-14T21:11:21.751Z,4.54
2024-02-14T21:13:50.839Z,4.51
2024-02-14T21:16:20.268Z,4.50
2024-02-14T21:18:49.124Z,4.49
2024-02-14T21:21:18.157Z,4.48
2024-02-14T21:23:47.503Z,4.48
2024-02-14T21:26:17.870Z,4.45
2024-02-14T21:28:46.368Z,4.45
2024-02-14T21:31:15.756Z,4.44
2024-02-14T21:33:45.341Z,4.44
2024-02-14T21:36:15.746Z,4.43
2024-02-14T21:38:44.631Z,4.42
2024-02-14T21:41:13.389Z,4.42
2024-02-14T21:43:43.082Z,4.39
2024-02-14T21:46:11.962Z,4.39
2024-02-14T21:48:40.796Z,4.37
2024-02-14T21:51:11.475Z,4.36
2024-02-14T21:53:40.447Z,4.38
2024-02-14T21:56:09.184Z,4.38
2024-02-14T21:58:37.906Z,4.40
2024-02-14T22:01:09.232Z,4.39
2024-02-14T22:03:38.157Z,4.41
2024-02-14T22:06:07.457Z,4.39
2024-02-14T22:08:36.486Z,4.37
2024-02-14T22:11:05.419Z,4.37
2024-02-14T22:13:34.253Z,4.36
2024-02-14T22:16:04.785Z,4.37
2024-02-14T22:18:36.724Z,4.37
2024-02-14T22:21:06.334Z,4.37
2024-02-14T22:23:35.429Z,4.38
2024-02-14T22:26:04.830Z,4.38
2024-02-14T22:28:35.960Z,4.38
2024-02-14T22:31:04.879Z,4.37
2024-02-14T22:33:35.442Z,4.36
2024-02-14T22:36:04.673Z,4.34
2024-02-14T22:38:33.747Z,4.34
2024-02-14T22:41:02.602Z,4.35
2024-02-14T22:43:30.992Z,4.34
2024-02-14T22:45:59.797Z,4.32
2024-02-14T22:48:28.774Z,4.32
2024-02-14T22:50:59.118Z,4.31
2024-02-14T22:53:28.188Z,4.31
2024-02-14T22:55:56.916Z,4.30
2024-02-14T22:58:26.125Z,4.30
2024-02-14T23:00:54.932Z,4.29
2024-02-14T23:03:23.774Z,4.29
2024-02-14T23:05:52.753Z,4.29
2024-02-14T23:08:23.086Z,4.30
2024-02-14T23:10:51.717Z,4.31
2024-02-14T23:13:20.390Z,4.30
2024-02-14T23:15:53.381Z,4.31
2024-02-14T23:18:22.851Z,4.28
2024-02-14T23:20:51.970Z,4.27
2024-02-14T23:23:22.186Z,4.27
2024-02-14T23:25:50.728Z,4.25
2024-02-14T23:28:19.574Z,4.24
2024-02-14T23:30:48.341Z,4.25
2024-02-14T23:33:17.601Z,4.24
2024-02-14T23:35:47.088Z,4.22
2024-02-14T23:38:15.867Z,4.20
2024-02-14T23:40:46.210Z,4.21
2024-02-14T23:43:15.045Z,4.19
2024-02-14T23:45:43.770Z,4.20
2024-02-14T23:48:12.896Z,4.19
2024-02-14T23:50:41.984Z,4.18
2024-02-14T23:53:10.855Z,4.19
2024-02-14T23:55:39.136Z,4.17
2024-02-14T23:58:10.784Z,4.15
